createdAt,value
2022-12-08T00:01:10.835Z,93.20
2022-12-08T00:03:37.719Z,92.90
2022-12-08T00:06:22.910Z,92.80
2022-12-08T00:09:07.617Z,92.10
2022-12-08T00:11:33.794Z,91.90
2022-12-08T00:14:00.523Z,91.80
2022-12-08T00:16:27.121Z,91.70
2022-12-08T00:18:53.491Z,91.60
2022-12-08T00:21:20.668Z,91.50
2022-12-08T00:23:46.968Z,91.50
2022-12-08T00:26:13.717Z,91.50
2022-12-08T00:28:40.923Z,91.50
2022-12-08T00:31:12.311Z,91.60
2022-12-08T00:33:38.535Z,91.50
2022-12-08T00:36:09.363Z,91.60
2022-12-08T00:38:36.286Z,91.70
2022-12-08T00:41:03.103Z,91.50
2022-12-08T00:43:30.107Z,91.70
2022-12-08T00:45:56.973Z,91.90
2022-12-08T00:48:23.260Z,91.80
2022-12-08T00:50:50.436Z,91.80
2022-12-08T00:53:17.311Z,91.80
2022-12-08T00:55:44.306Z,92.00
2022-12-08T00:58:10.457Z,91.80
2022-12-08T01:00:39.673Z,91.80
2022-12-08T01:03:05.998Z,92.00
2022-12-08T01:05:32.291Z,92.10
2022-12-08T01:07:58.531Z,92.30
2022-12-08T01:10:26.255Z,92.40
2022-12-08T01:12:52.411Z,92.40
2022-12-08T01:15:18.624Z,92.60
2022-12-08T01:17:44.777Z,92.90
2022-12-08T01:20:12.108Z,93.00
2022-12-08T01:22:38.237Z,93.20
2022-12-08T01:25:06.414Z,93.30
2022-12-08T01:27:33.717Z,93.50
2022-12-08T01:30:01.144Z,93.70
2022-12-08T01:32:28.013Z,93.60
2022-12-08T01:34:55.126Z,93.70
2022-12-08T01:37:21.704Z,93.60
2022-12-08T01:39:48.208Z,93.60
2022-12-08T01:42:19.716Z,93.40
2022-12-08T01:44:52.505Z,93.40
2022-12-08T01:47:18.656Z,93.60
2022-12-08T01:49:44.847Z,93.40
2022-12-08T01:52:17.544Z,93.80
2022-12-08T01:54:50.289Z,93.90
2022-12-08T01:57:19.102Z,94.20
2022-12-08T01:59:50.964Z,94.40
2022-12-08T02:02:17.204Z,94.60
2022-12-08T02:04:44.954Z,94.60
2022-12-08T02:07:11.676Z,94.30
2022-12-08T02:09:39.019Z,93.90
2022-12-08T02:12:05.551Z,93.90
2022-12-08T02:14:31.679Z,94.20
2022-12-08T02:20:08.257Z,94.20
2022-12-08T02:25:39.504Z,93.80
2022-12-08T02:29:32.909Z,93.30
2022-12-08T02:33:09.051Z,93.50
2022-12-08T02:36:00.223Z,93.80
2022-12-08T02:38:35.894Z,93.60
2022-12-08T02:41:56.783Z,93.20
2022-12-08T02:45:58.773Z,93.10
2022-12-08T02:48:27.459Z,93.10
2022-12-08T02:50:53.646Z,92.70
2022-12-08T02:53:19.820Z,92.60
2022-12-08T02:56:09.680Z,92.40
2022-12-08T02:58:59.022Z,92.20
2022-12-08T03:01:58.704Z,92.60
2022-12-08T03:07:07.886Z,92.80
2022-12-08T03:09:58.070Z,93.00
2022-12-08T03:12:34.152Z,92.40
2022-12-08T03:15:04.550Z,95.80
2022-12-08T03:17:31.211Z,92.50
2022-12-08T03:19:59.294Z,92.30
2022-12-08T03:22:25.458Z,92.30
2022-12-08T03:24:51.563Z,92.40
2022-12-08T03:27:21.579Z,92.50
2022-12-08T03:29:48.564Z,92.70
2022-12-08T03:32:52.828Z,93.10
2022-12-08T03:35:24.966Z,93.10
2022-12-08T03:37:51.491Z,93.10
2022-12-08T03:40:19.826Z,93.50
2022-12-08T03:42:46.812Z,93.60
2022-12-08T03:45:13.000Z,93.70
2022-12-08T03:47:39.473Z,93.80
2022-12-08T03:50:07.553Z,93.90
2022-12-08T03:52:33.978Z,93.90
2022-12-08T03:55:02.757Z,94.00
2022-12-08T03:57:29.098Z,94.30
2022-12-08T03:59:55.210Z,94.00
2022-12-08T04:02:22.361Z,94.10
2022-12-08T04:04:49.417Z,93.80
2022-12-08T04:07:16.492Z,93.50
2022-12-08T04:09:44.127Z,93.40
2022-12-08T04:12:10.349Z,93.30
2022-12-08T04:14:39.140Z,93.40
2022-12-08T04:17:05.467Z,93.40
2022-12-08T04:19:31.603Z,93.50
2022-12-08T04:21:57.760Z,93.50
2022-12-08T04:24:23.944Z,93.30
2022-12-08T04:26:50.882Z,93.60
2022-12-08T04:29:17.053Z,93.60
2022-12-08T04:31:44.618Z,93.50
2022-12-08T04:34:11.521Z,93.80
2022-12-08T04:36:37.709Z,93.60
2022-12-08T04:39:04.175Z,93.60
2022-12-08T04:41:30.871Z,93.50
2022-12-08T04:43:57.051Z,93.60
2022-12-08T04:46:23.775Z,93.60
2022-12-08T04:48:50.230Z,93.70
2022-12-08T04:51:17.945Z,94.00
2022-12-08T04:53:46.699Z,94.40
2022-12-08T04:56:16.054Z,94.60
2022-12-08T04:58:43.425Z,94.60
2022-12-08T05:01:10.337Z,94.70
2022-12-08T05:03:36.901Z,94.70
2022-12-08T05:06:05.022Z,94.60
2022-12-08T05:08:31.719Z,94.20
2022-12-08T05:11:04.689Z,94.40
2022-12-08T05:13:31.061Z,94.40
2022-12-08T05:16:13.116Z,94.40
2022-12-08T05:18:40.372Z,94.20
2022-12-08T05:21:07.181Z,94.00
2022-12-08T05:23:33.631Z,94.30
2022-12-08T05:25:59.761Z,94.50
2022-12-08T05:28:41.497Z,94.60
2022-12-08T05:31:09.557Z,94.70
2022-12-08T05:33:36.401Z,95.00
2022-12-08T05:36:03.508Z,94.80
2022-12-08T05:38:29.799Z,95.00
2022-12-08T05:40:55.965Z,94.90
2022-12-08T05:43:22.086Z,94.90
2022-12-08T05:45:48.281Z,94.90
2022-12-08T05:48:14.667Z,94.90
2022-12-08T05:50:46.627Z,94.90
2022-12-08T05:53:13.448Z,94.90
2022-12-08T05:55:39.610Z,95.20
2022-12-08T05:58:08.119Z,95.10
2022-12-08T06:00:34.952Z,95.10
2022-12-08T06:03:01.276Z,95.50
2022-12-08T06:05:28.196Z,95.70
2022-12-08T06:07:55.167Z,95.70
2022-12-08T06:10:21.715Z,95.70
2022-12-08T06:12:47.982Z,95.60
2022-12-08T06:15:14.207Z,95.40
2022-12-08T06:17:40.855Z,95.40
2022-12-08T06:20:07.763Z,95.50
2022-12-08T06:22:36.474Z,95.70
2022-12-08T06:25:07.177Z,95.70
2022-12-08T06:27:36.411Z,95.50
2022-12-08T06:30:03.519Z,95.50
2022-12-08T06:32:32.541Z,95.20
2022-12-08T06:34:58.840Z,95.20
2022-12-08T06:37:24.991Z,95.40
2022-12-08T06:39:52.081Z,95.40
2022-12-08T06:42:36.566Z,95.40
2022-12-08T06:45:05.308Z,95.00
2022-12-08T06:47:32.445Z,95.40
2022-12-08T06:49:58.683Z,94.80
2022-12-08T06:52:25.899Z,94.90
2022-12-08T06:54:52.067Z,95.00
2022-12-08T06:57:18.212Z,94.90
2022-12-08T06:59:45.427Z,94.90
2022-12-08T07:02:11.614Z,94.90
2022-12-08T07:04:38.905Z,94.80
2022-12-08T07:07:05.069Z,94.90
2022-12-08T07:09:31.572Z,95.00
2022-12-08T07:11:58.706Z,94.80
2022-12-08T07:14:25.594Z,94.80
2022-12-08T07:16:52.860Z,94.80
2022-12-08T07:19:19.566Z,94.70
2022-12-08T07:21:45.866Z,94.50
2022-12-08T07:24:13.111Z,94.30
2022-12-08T07:26:41.035Z,94.20
2022-12-08T07:29:08.452Z,94.20
2022-12-08T07:31:34.740Z,94.10
2022-12-08T07:34:01.623Z,94.00
2022-12-08T07:36:27.834Z,93.80
2022-12-08T07:38:54.378Z,93.60
2022-12-08T07:41:25.109Z,93.20
2022-12-08T07:43:52.859Z,93.00
2022-12-08T07:46:21.972Z,92.80
2022-12-08T07:48:48.613Z,92.80
2022-12-08T07:51:15.866Z,92.90
2022-12-08T07:53:51.811Z,93.00
2022-12-08T07:56:20.196Z,92.60
2022-12-08T07:58:46.383Z,92.60
2022-12-08T08:01:25.104Z,92.20
2022-12-08T08:03:53.962Z,92.30
2022-12-08T08:06:20.218Z,92.20
2022-12-08T08:08:46.548Z,92.10
2022-12-08T08:11:20.989Z,91.80
2022-12-08T08:13:49.292Z,91.60
2022-12-08T08:16:16.362Z,91.70
2022-12-08T08:18:43.277Z,91.40
2022-12-08T08:21:43.165Z,91.20
2022-12-08T08:24:10.869Z,91.30
2022-12-08T08:26:37.562Z,90.80
2022-12-08T08:29:03.845Z,90.90
2022-12-08T08:31:30.264Z,90.60
2022-12-08T08:33:57.202Z,90.00
2022-12-08T08:36:23.376Z,90.10
2022-12-08T08:38:50.491Z,90.60
2022-12-08T08:41:17.679Z,90.30
2022-12-08T08:43:44.404Z,89.70
2022-12-08T08:46:10.660Z,89.50
2022-12-08T08:48:37.270Z,90.00
2022-12-08T08:51:08.911Z,89.10
2022-12-08T08:53:36.235Z,88.70
2022-12-08T08:56:04.670Z,89.10
2022-12-08T08:58:30.935Z,89.00
2022-12-08T09:00:57.171Z,88.70
2022-12-08T09:03:23.368Z,89.20
2022-12-08T09:05:51.156Z,88.40
2022-12-08T09:08:18.749Z,87.80
2022-12-08T09:10:46.233Z,87.30
2022-12-08T09:13:12.412Z,85.90
2022-12-08T09:15:38.653Z,85.90
2022-12-08T09:18:09.153Z,85.00
2022-12-08T09:20:35.406Z,84.50
2022-12-08T09:23:02.068Z,84.40
2022-12-08T09:25:28.846Z,83.40
2022-12-08T09:27:55.043Z,82.50
2022-12-08T09:30:21.955Z,83.00
2022-12-08T09:32:48.142Z,81.40
2022-12-08T09:35:14.663Z,81.40
2022-12-08T09:37:41.016Z,81.90
2022-12-08T09:40:08.491Z,79.80
2022-12-08T09:43:58.145Z,78.60
2022-12-08T09:46:25.939Z,78.20
2022-12-08T09:48:57.522Z,78.90
2022-12-08T09:51:25.058Z,76.70
2022-12-08T09:54:09.078Z,77.30
2022-12-08T09:56:36.524Z,77.50
2022-12-08T09:59:24.350Z,76.00
2022-12-08T10:01:50.621Z,78.70
2022-12-08T10:04:32.745Z,79.40
2022-12-08T10:07:16.587Z,79.40
2022-12-08T10:11:09.208Z,79.80
2022-12-08T10:15:09.032Z,79.80
2022-12-08T10:17:37.400Z,80.30
2022-12-08T10:20:20.643Z,81.30
2022-12-08T10:22:49.857Z,81.40
2022-12-08T10:25:18.550Z,79.50
2022-12-08T10:27:46.240Z,81.70
2022-12-08T10:30:13.369Z,81.10
2022-12-08T10:32:40.150Z,80.00
2022-12-08T10:35:11.487Z,80.60
2022-12-08T10:37:37.750Z,81.70
2022-12-08T10:41:17.447Z,81.20
2022-12-08T10:43:53.159Z,82.40
2022-12-08T10:46:21.532Z,82.70
2022-12-08T10:48:56.261Z,81.40
2022-12-08T10:51:47.414Z,81.40
2022-12-08T10:54:33.858Z,82.30
2022-12-08T10:57:00.251Z,80.60
2022-12-08T10:59:26.499Z,79.30
2022-12-08T11:01:54.549Z,81.90
2022-12-08T11:04:23.507Z,80.80
2022-12-08T11:06:50.295Z,81.60
2022-12-08T11:10:01.782Z,82.50
2022-12-08T11:12:28.514Z,81.00
2022-12-08T11:15:00.420Z,81.50
2022-12-08T11:17:27.466Z,81.40
2022-12-08T11:21:07.264Z,81.10
2022-12-08T11:23:35.703Z,78.70
2022-12-08T11:26:15.740Z,80.80
2022-12-08T11:28:41.897Z,79.00
2022-12-08T11:31:28.912Z,80.20
2022-12-08T11:33:55.750Z,80.70
2022-12-08T11:36:24.460Z,80.40
2022-12-08T11:38:51.533Z,79.20
2022-12-08T11:41:22.051Z,81.20
2022-12-08T11:45:24.578Z,81.50
2022-12-08T11:48:34.982Z,79.10
2022-12-08T11:54:34.747Z,78.70
2022-12-08T11:57:02.968Z,78.70
2022-12-08T11:59:34.586Z,78.90
2022-12-08T12:02:01.940Z,80.20
2022-12-08T12:06:37.640Z,80.00
2022-12-08T12:11:06.428Z,80.30
2022-12-08T12:14:00.148Z,80.00
2022-12-08T12:16:40.636Z,81.10
2022-12-08T12:19:15.604Z,80.50
2022-12-08T12:21:44.067Z,80.20
2022-12-08T12:24:27.553Z,80.90
2022-12-08T12:26:59.187Z,81.00
2022-12-08T12:29:29.133Z,82.00
2022-12-08T12:32:01.648Z,83.10
2022-12-08T12:34:48.530Z,83.20
2022-12-08T12:37:17.793Z,83.10
2022-12-08T12:40:19.721Z,81.70
2022-12-08T12:42:54.227Z,81.30
2022-12-08T12:45:26.803Z,81.10
2022-12-08T12:48:35.226Z,80.80
2022-12-08T12:51:21.058Z,80.90
2022-12-08T12:53:47.794Z,81.20
2022-12-08T12:56:49.326Z,80.70
2022-12-08T13:00:06.700Z,80.80
2022-12-08T13:02:41.146Z,80.80
2022-12-08T13:05:33.630Z,80.20
2022-12-08T13:08:09.085Z,80.70
2022-12-08T13:10:39.311Z,79.50
2022-12-08T13:13:40.543Z,80.90
2022-12-08T13:16:19.428Z,80.60
2022-12-08T13:18:50.062Z,81.10
2022-12-08T13:21:21.334Z,81.20
2022-12-08T13:24:34.344Z,81.50
2022-12-08T13:27:52.449Z,80.60
2022-12-08T13:30:44.774Z,81.00
2022-12-08T13:33:39.495Z,80.60
2022-12-08T13:38:49.060Z,81.30
2022-12-08T13:41:21.940Z,80.10
2022-12-08T13:47:32.708Z,81.30
2022-12-08T13:54:36.586Z,80.50
2022-12-08T13:57:26.787Z,81.90
2022-12-08T13:59:53.515Z,82.30
2022-12-08T14:02:39.539Z,82.50
2022-12-08T14:05:17.909Z,83.10
2022-12-08T14:07:46.481Z,83.70
2022-12-08T14:10:27.129Z,84.40
2022-12-08T14:13:05.391Z,84.10
2022-12-08T14:15:38.358Z,86.00
2022-12-08T14:18:05.832Z,86.70
2022-12-08T14:20:57.933Z,86.90
2022-12-08T14:23:45.545Z,88.50
2022-12-08T14:26:14.822Z,88.70
2022-12-08T14:28:45.017Z,88.70
2022-12-08T14:31:14.917Z,89.10
2022-12-08T14:33:41.976Z,89.70
2022-12-08T14:36:08.647Z,90.30
2022-12-08T14:38:36.410Z,90.40
2022-12-08T14:41:08.361Z,90.50
2022-12-08T14:43:35.171Z,90.60
2022-12-08T14:46:19.185Z,90.70
2022-12-08T14:48:45.737Z,91.10
2022-12-08T14:51:31.111Z,91.00
2022-12-08T14:54:09.974Z,91.20
2022-12-08T14:56:49.915Z,91.20
2022-12-08T14:59:30.498Z,91.60
2022-12-08T15:02:27.813Z,92.00
2022-12-08T15:05:10.382Z,92.10
2022-12-08T15:07:54.394Z,92.30
2022-12-08T15:10:29.299Z,92.60
2022-12-08T15:13:57.036Z,92.60
2022-12-08T15:16:41.998Z,92.70
2022-12-08T15:19:37.472Z,92.80
2022-12-08T15:22:20.911Z,91.90
2022-12-08T15:24:47.152Z,91.50
2022-12-08T15:27:18.694Z,91.90
2022-12-08T15:29:45.925Z,91.70
2022-12-08T15:32:14.938Z,91.80
2022-12-08T15:34:42.128Z,91.50
2022-12-08T15:37:22.983Z,91.60
2022-12-08T15:39:49.847Z,91.80
2022-12-08T15:42:16.146Z,92.00
2022-12-08T15:44:42.415Z,91.80
2022-12-08T15:47:26.839Z,91.90
2022-12-08T15:49:53.987Z,91.40
2022-12-08T15:52:26.220Z,91.40
2022-12-08T15:54:54.306Z,91.50
2022-12-08T15:58:04.089Z,91.60
2022-12-08T16:00:58.002Z,91.50
2022-12-08T16:07:26.866Z,91.30
2022-12-08T16:09:54.025Z,90.80
2022-12-08T16:13:40.540Z,91.50
2022-12-08T16:16:28.301Z,91.20
2022-12-08T16:18:54.647Z,91.10
2022-12-08T16:21:57.828Z,91.00
2022-12-08T16:25:04.961Z,91.10
2022-12-08T16:30:37.416Z,90.60
2022-12-08T16:33:05.449Z,90.50
2022-12-08T16:35:31.712Z,90.40
2022-12-08T16:37:58.651Z,90.50
2022-12-08T16:40:25.065Z,89.40
2022-12-08T16:42:52.468Z,90.00
2022-12-08T16:45:26.877Z,88.50
2022-12-08T16:47:59.260Z,88.70
2022-12-08T16:50:33.985Z,88.00
2022-12-08T16:53:02.943Z,88.20
2022-12-08T16:55:29.335Z,88.50
2022-12-08T16:57:56.598Z,89.50
2022-12-08T17:00:27.878Z,88.30
2022-12-08T17:02:54.871Z,88.80
2022-12-08T17:05:23.885Z,90.10
2022-12-08T17:07:51.114Z,90.70
2022-12-08T17:10:19.865Z,90.20
2022-12-08T17:12:46.294Z,90.00
2022-12-08T17:15:18.064Z,90.50
2022-12-08T17:17:45.686Z,90.80
2022-12-08T17:20:17.424Z,90.50
2022-12-08T17:22:43.672Z,90.50
2022-12-08T17:25:10.727Z,89.40
2022-12-08T17:27:37.214Z,90.20
2022-12-08T17:30:08.024Z,90.60
2022-12-08T17:32:36.987Z,90.40
2022-12-08T17:35:05.678Z,89.80
2022-12-08T17:37:33.578Z,90.10
2022-12-08T17:40:00.553Z,90.50
2022-12-08T17:42:27.890Z,90.70
2022-12-08T17:44:55.491Z,90.90
2022-12-08T17:47:23.860Z,91.00
2022-12-08T17:49:52.320Z,91.60
2022-12-08T17:52:20.836Z,91.90
2022-12-08T17:54:47.077Z,91.60
2022-12-08T17:57:14.559Z,91.80
2022-12-08T17:59:40.871Z,92.10
2022-12-08T18:02:10.891Z,92.10
2022-12-08T18:04:38.057Z,92.10
2022-12-08T18:07:04.394Z,92.10
2022-12-08T18:09:32.896Z,92.10
2022-12-08T18:11:59.838Z,92.20
2022-12-08T18:14:26.694Z,92.10
2022-12-08T18:16:53.862Z,92.50
2022-12-08T18:19:21.882Z,92.90
2022-12-08T18:21:48.145Z,92.80
2022-12-08T18:24:21.451Z,92.60
2022-12-08T18:26:48.054Z,92.80
2022-12-08T18:29:14.960Z,92.50
2022-12-08T18:31:42.282Z,92.70
2022-12-08T18:34:08.875Z,92.70
2022-12-08T18:36:35.513Z,92.70
2022-12-08T18:39:05.768Z,92.90
2022-12-08T18:41:35.385Z,93.40
2022-12-08T18:44:02.509Z,93.30
2022-12-08T18:46:30.099Z,92.90
2022-12-08T18:48:58.771Z,92.70
2022-12-08T18:51:27.587Z,92.60
2022-12-08T18:53:54.093Z,92.30
2022-12-08T18:56:26.446Z,92.70
2022-12-08T18:59:02.593Z,92.60
2022-12-08T19:01:34.335Z,92.50
2022-12-08T19:04:27.477Z,92.60
2022-12-08T19:06:54.984Z,92.50
2022-12-08T19:09:24.648Z,92.80
2022-12-08T19:11:50.899Z,93.00
2022-12-08T19:14:21.241Z,92.60
2022-12-08T19:16:50.449Z,92.70
2022-12-08T19:19:17.041Z,92.40
2022-12-08T19:21:46.506Z,92.70
2022-12-08T19:24:14.028Z,92.50
2022-12-08T19:26:41.185Z,92.70
2022-12-08T19:29:07.615Z,92.30
2022-12-08T19:31:34.911Z,92.10
2022-12-08T19:34:01.936Z,91.80
2022-12-08T19:36:35.222Z,91.70
2022-12-08T19:39:20.959Z,91.60
2022-12-08T19:42:07.851Z,91.30
2022-12-08T19:44:52.051Z,90.90
2022-12-08T19:47:20.727Z,91.20
2022-12-08T19:49:47.255Z,90.70
2022-12-08T19:52:13.905Z,90.60
2022-12-08T19:54:40.353Z,90.50
2022-12-08T19:57:06.628Z,90.50
2022-12-08T19:59:35.129Z,90.30
2022-12-08T20:02:01.919Z,90.10
2022-12-08T20:04:29.425Z,90.20
2022-12-08T20:06:57.327Z,89.80
2022-12-08T20:09:24.703Z,89.90
2022-12-08T20:11:54.293Z,89.20
2022-12-08T20:14:23.285Z,89.70
2022-12-08T20:16:51.642Z,90.20
2022-12-08T20:19:19.107Z,90.00
2022-12-08T20:21:46.650Z,90.00
2022-12-08T20:24:14.439Z,90.50
2022-12-08T20:26:41.876Z,89.80
2022-12-08T20:29:09.747Z,89.50
2022-12-08T20:31:38.102Z,89.40
2022-12-08T20:34:05.727Z,89.90
2022-12-08T20:36:32.272Z,89.50
2022-12-08T20:38:58.618Z,89.70
2022-12-08T20:41:27.776Z,89.70
2022-12-08T20:43:55.389Z,87.40
2022-12-08T20:46:22.384Z,87.60
2022-12-08T20:48:49.835Z,89.20
2022-12-08T20:51:18.880Z,89.30
2022-12-08T20:53:46.440Z,89.30
2022-12-08T20:56:20.328Z,88.70
2022-12-08T20:58:47.131Z,88.60
2022-12-08T21:01:15.134Z,88.00
2022-12-08T21:03:43.660Z,88.80
2022-12-08T21:06:11.848Z,88.60
2022-12-08T21:08:38.884Z,88.40
2022-12-08T21:11:05.594Z,88.20
2022-12-08T21:13:33.919Z,88.40
2022-12-08T21:16:00.478Z,88.30
2022-12-08T21:18:27.150Z,87.90
2022-12-08T21:21:01.709Z,88.40
2022-12-08T21:23:28.425Z,88.20
2022-12-08T21:25:55.002Z,88.20
2022-12-08T21:28:21.574Z,88.10
2022-12-08T21:30:47.889Z,88.20
2022-12-08T21:33:15.734Z,89.30
2022-12-08T21:35:43.758Z,88.10
2022-12-08T21:38:10.276Z,88.60
2022-12-08T21:40:39.645Z,88.40
2022-12-08T21:43:06.052Z,88.40
2022-12-08T21:45:33.001Z,88.50
2022-12-08T21:48:01.365Z,88.40
2022-12-08T21:50:30.911Z,89.00
2022-12-08T21:53:03.483Z,88.80
2022-12-08T21:55:29.948Z,88.90
2022-12-08T21:58:00.981Z,89.10
2022-12-08T22:00:28.739Z,89.70
2022-12-08T22:02:56.734Z,90.40
2022-12-08T22:05:25.435Z,89.70
2022-12-08T22:07:54.584Z,90.10
2022-12-08T22:10:23.099Z,90.00
2022-12-08T22:12:49.505Z,90.20
2022-12-08T22:15:16.404Z,90.30
2022-12-08T22:17:43.422Z,90.00
2022-12-08T22:20:15.036Z,90.00
2022-12-08T22:22:41.763Z,90.20
2022-12-08T22:25:13.807Z,90.40
2022-12-08T22:27:40.678Z,90.50
2022-12-08T22:30:08.432Z,90.20
2022-12-08T22:32:35.938Z,90.30
2022-12-08T22:35:02.750Z,89.90
2022-12-08T22:37:30.143Z,89.90
2022-12-08T22:39:56.405Z,90.10
2022-12-08T22:42:23.389Z,90.40
2022-12-08T22:44:49.712Z,90.30
2022-12-08T22:47:16.180Z,90.50
2022-12-08T22:49:44.009Z,90.60
2022-12-08T22:52:10.643Z,89.80
2022-12-08T22:54:36.885Z,90.60
2022-12-08T22:57:03.711Z,90.90
2022-12-08T22:59:32.548Z,90.50
2022-12-08T23:01:59.402Z,90.50
2022-12-08T23:04:26.597Z,90.80
2022-12-08T23:06:54.025Z,91.20
2022-12-08T23:09:21.404Z,91.00
2022-12-08T23:11:48.588Z,91.60
2022-12-08T23:14:15.204Z,91.10
2022-12-08T23:16:42.065Z,91.20
2022-12-08T23:19:08.866Z,91.20
2022-12-08T23:21:35.091Z,91.40
2022-12-08T23:24:03.119Z,91.20
2022-12-08T23:26:31.365Z,91.40
2022-12-08T23:28:57.871Z,91.00
2022-12-08T23:31:24.350Z,91.20
2022-12-08T23:33:51.558Z,91.40
2022-12-08T23:36:18.402Z,91.50
2022-12-08T23:38:45.594Z,90.80
2022-12-08T23:41:13.586Z,91.00
2022-12-08T23:43:45.371Z,90.90
2022-12-08T23:46:12.187Z,91.20
2022-12-08T23:48:38.849Z,91.60
2022-12-08T23:51:05.930Z,91.10
2022-12-08T23:53:33.254Z,90.90
2022-12-08T23:56:01.459Z,91.20
2022-12-08T23:58:29.526Z,91.20
